sensor_id;sensor_type;location;lat;lon;timestamp;P1;durP1;ratioP1;P2;durP2;ratioP2
5391;SDS011;2719;53.624;9.786;2022-09-17T00:00:49;13.43;;;1.37;;
5391;SDS011;2719;53.624;9.786;2022-09-17T00:03:17;19.93;;;2.23;;
5391;SDS011;2719;53.624;9.786;2022-09-17T00:05:45;19.33;;;1.77;;
5391;SDS011;2719;53.624;9.786;2022-09-17T00:08:12;25.00;;;2.87;;
5391;SDS011;2719;53.624;9.786;2022-09-17T00:10:40;14.10;;;2.47;;
5391;SDS011;2719;53.624;9.786;2022-09-17T00:13:08;28.60;;;2.80;;
5391;SDS011;2719;53.624;9.786;2022-09-17T00:15:38;15.90;;;1.90;;
5391;SDS011;2719;53.624;9.786;2022-09-17T00:18:05;16.23;;;2.50;;
5391;SDS011;2719;53.624;9.786;2022-09-17T00:20:36;27.90;;;1.97;;
5391;SDS011;2719;53.624;9.786;2022-09-17T00:23:05;13.40;;;2.00;;
5391;SDS011;2719;53.624;9.786;2022-09-17T00:25:32;19.93;;;1.87;;
5391;SDS011;2719;53.624;9.786;2022-09-17T00:27:59;16.33;;;1.33;;
5391;SDS011;2719;53.624;9.786;2022-09-17T00:30:26;26.60;;;2.03;;
5391;SDS011;2719;53.624;9.786;2022-09-17T00:32:52;14.13;;;2.07;;
5391;SDS011;2719;53.624;9.786;2022-09-17T00:35:21;10.23;;;1.67;;
5391;SDS011;2719;53.624;9.786;2022-09-17T00:37:48;24.53;;;2.63;;
5391;SDS011;2719;53.624;9.786;2022-09-17T00:40:16;13.90;;;1.67;;
5391;SDS011;2719;53.624;9.786;2022-09-17T00:42:43;17.50;;;1.73;;
5391;SDS011;2719;53.624;9.786;2022-09-17T00:45:10;20.13;;;2.63;;
5391;SDS011;2719;53.624;9.786;2022-09-17T00:47:39;18.63;;;1.73;;
5391;SDS011;2719;53.624;9.786;2022-09-17T00:50:11;11.87;;;2.13;;
5391;SDS011;2719;53.624;9.786;2022-09-17T00:52:43;12.60;;;2.10;;
5391;SDS011;2719;53.624;9.786;2022-09-17T00:55:15;15.63;;;2.20;;
5391;SDS011;2719;53.624;9.786;2022-09-17T00:57:47;24.13;;;2.60;;
5391;SDS011;2719;53.624;9.786;2022-09-17T01:00:16;14.00;;;1.50;;
5391;SDS011;2719;53.624;9.786;2022-09-17T01:02:43;13.87;;;2.30;;
5391;SDS011;2719;53.624;9.786;2022-09-17T01:05:10;9.10;;;1.53;;
5391;SDS011;2719;53.624;9.786;2022-09-17T01:07:42;14.03;;;1.47;;
5391;SDS011;2719;53.624;9.786;2022-09-17T01:10:29;21.37;;;2.50;;
5391;SDS011;2719;53.624;9.786;2022-09-17T01:13:17;20.90;;;2.40;;
5391;SDS011;2719;53.624;9.786;2022-09-17T01:15:50;11.97;;;1.47;;
5391;SDS011;2719;53.624;9.786;2022-09-17T01:18:28;14.90;;;1.83;;
5391;SDS011;2719;53.624;9.786;2022-09-17T01:21:24;16.93;;;1.43;;
5391;SDS011;2719;53.624;9.786;2022-09-17T01:24:16;9.40;;;1.77;;
5391;SDS011;2719;53.624;9.786;2022-09-17T01:30:31;21.83;;;2.33;;
5391;SDS011;2719;53.624;9.786;2022-09-17T01:33:05;9.27;;;1.03;;
5391;SDS011;2719;53.624;9.786;2022-09-17T01:35:42;9.33;;;1.13;;
5391;SDS011;2719;53.624;9.786;2022-09-17T01:38:20;20.73;;;1.60;;
5391;SDS011;2719;53.624;9.786;2022-09-17T01:40:52;12.07;;;1.67;;
5391;SDS011;2719;53.624;9.786;2022-09-17T01:43:26;18.03;;;1.93;;
5391;SDS011;2719;53.624;9.786;2022-09-17T01:46:02;17.13;;;1.33;;
5391;SDS011;2719;53.624;9.786;2022-09-17T01:48:38;21.83;;;1.63;;
5391;SDS011;2719;53.624;9.786;2022-09-17T01:51:08;13.73;;;1.70;;
5391;SDS011;2719;53.624;9.786;2022-09-17T01:53:39;19.03;;;2.20;;
5391;SDS011;2719;53.624;9.786;2022-09-17T01:56:17;15.83;;;2.07;;
5391;SDS011;2719;53.624;9.786;2022-09-17T01:58:50;22.37;;;3.03;;
5391;SDS011;2719;53.624;9.786;2022-09-17T02:01:22;20.67;;;1.03;;
5391;SDS011;2719;53.624;9.786;2022-09-17T02:03:56;23.67;;;2.17;;
5391;SDS011;2719;53.624;9.786;2022-09-17T02:06:28;9.73;;;1.00;;
5391;SDS011;2719;53.624;9.786;2022-09-17T02:09:00;13.33;;;1.57;;
5391;SDS011;2719;53.624;9.786;2022-09-17T02:11:30;21.83;;;2.90;;
5391;SDS011;2719;53.624;9.786;2022-09-17T02:14:01;16.57;;;2.30;;
5391;SDS011;2719;53.624;9.786;2022-09-17T02:16:34;16.07;;;1.17;;
5391;SDS011;2719;53.624;9.786;2022-09-17T02:19:05;17.43;;;1.10;;
5391;SDS011;2719;53.624;9.786;2022-09-17T02:21:37;14.07;;;1.40;;
5391;SDS011;2719;53.624;9.786;2022-09-17T02:24:11;15.17;;;2.30;;
5391;SDS011;2719;53.624;9.786;2022-09-17T02:26:44;10.53;;;1.70;;
5391;SDS011;2719;53.624;9.786;2022-09-17T02:29:16;11.80;;;1.63;;
5391;SDS011;2719;53.624;9.786;2022-09-17T02:31:51;17.00;;;2.73;;
5391;SDS011;2719;53.624;9.786;2022-09-17T02:34:18;21.77;;;2.00;;
5391;SDS011;2719;53.624;9.786;2022-09-17T02:36:46;28.53;;;5.40;;
5391;SDS011;2719;53.624;9.786;2022-09-17T02:39:13;17.60;;;3.13;;
5391;SDS011;2719;53.624;9.786;2022-09-17T02:41:43;12.70;;;1.50;;
5391;SDS011;2719;53.624;9.786;2022-09-17T02:44:17;12.40;;;1.87;;
5391;SDS011;2719;53.624;9.786;2022-09-17T02:46:58;14.93;;;1.20;;
5391;SDS011;2719;53.624;9.786;2022-09-17T02:49:42;21.70;;;2.60;;
5391;SDS011;2719;53.624;9.786;2022-09-17T02:52:23;17.23;;;1.83;;
5391;SDS011;2719;53.624;9.786;2022-09-17T02:55:03;9.70;;;0.90;;
5391;SDS011;2719;53.624;9.786;2022-09-17T02:57:38;19.43;;;2.00;;
5391;SDS011;2719;53.624;9.786;2022-09-17T03:00:11;6.90;;;1.60;;
5391;SDS011;2719;53.624;9.786;2022-09-17T03:02:42;9.10;;;1.20;;
5391;SDS011;2719;53.624;9.786;2022-09-17T03:05:12;12.40;;;1.43;;
5391;SDS011;2719;53.624;9.786;2022-09-17T03:07:40;13.73;;;1.40;;
5391;SDS011;2719;53.624;9.786;2022-09-17T03:10:07;6.30;;;1.07;;
5391;SDS011;2719;53.624;9.786;2022-09-17T03:12:34;8.33;;;1.30;;
5391;SDS011;2719;53.624;9.786;2022-09-17T03:15:02;11.53;;;1.00;;
5391;SDS011;2719;53.624;9.786;2022-09-17T03:17:29;17.40;;;1.63;;
5391;SDS011;2719;53.624;9.786;2022-09-17T03:19:57;7.87;;;1.20;;
5391;SDS011;2719;53.624;9.786;2022-09-17T03:22:24;8.63;;;1.00;;
5391;SDS011;2719;53.624;9.786;2022-09-17T03:24:51;11.23;;;2.07;;
5391;SDS011;2719;53.624;9.786;2022-09-17T03:27:17;19.47;;;1.47;;
5391;SDS011;2719;53.624;9.786;2022-09-17T03:29:44;12.57;;;2.57;;
5391;SDS011;2719;53.624;9.786;2022-09-17T03:32:10;16.23;;;1.13;;
5391;SDS011;2719;53.624;9.786;2022-09-17T03:34:37;11.03;;;1.50;;
5391;SDS011;2719;53.624;9.786;2022-09-17T03:37:05;11.80;;;1.60;;
5391;SDS011;2719;53.624;9.786;2022-09-17T03:39:32;6.37;;;1.10;;
5391;SDS011;2719;53.624;9.786;2022-09-17T03:41:59;11.43;;;1.00;;
5391;SDS011;2719;53.624;9.786;2022-09-17T03:44:25;9.93;;;2.13;;
5391;SDS011;2719;53.624;9.786;2022-09-17T03:46:52;8.27;;;1.17;;
5391;SDS011;2719;53.624;9.786;2022-09-17T03:49:18;9.50;;;1.23;;
5391;SDS011;2719;53.624;9.786;2022-09-17T03:51:45;14.70;;;1.13;;
5391;SDS011;2719;53.624;9.786;2022-09-17T03:54:13;13.57;;;0.97;;
5391;SDS011;2719;53.624;9.786;2022-09-17T03:56:40;12.33;;;1.10;;
5391;SDS011;2719;53.624;9.786;2022-09-17T03:59:07;10.20;;;1.77;;
5391;SDS011;2719;53.624;9.786;2022-09-17T04:01:33;11.07;;;2.23;;
5391;SDS011;2719;53.624;9.786;2022-09-17T04:04:01;7.83;;;1.30;;
5391;SDS011;2719;53.624;9.786;2022-09-17T04:06:27;7.30;;;0.90;;
5391;SDS011;2719;53.624;9.786;2022-09-17T04:08:54;17.03;;;1.27;;
5391;SDS011;2719;53.624;9.786;2022-09-17T04:11:23;12.80;;;1.03;;
5391;SDS011;2719;53.624;9.786;2022-09-17T04:13:49;15.13;;;1.40;;
5391;SDS011;2719;53.624;9.786;2022-09-17T04:16:16;11.63;;;1.53;;
5391;SDS011;2719;53.624;9.786;2022-09-17T04:18:43;10.30;;;1.80;;
5391;SDS011;2719;53.624;9.786;2022-09-17T04:21:09;3.97;;;0.80;;
5391;SDS011;2719;53.624;9.786;2022-09-17T04:23:36;9.70;;;1.20;;
5391;SDS011;2719;53.624;9.786;2022-09-17T04:26:03;8.53;;;1.00;;
5391;SDS011;2719;53.624;9.786;2022-09-17T04:28:31;9.87;;;1.00;;
5391;SDS011;2719;53.624;9.786;2022-09-17T04:30:58;16.37;;;1.70;;
5391;SDS011;2719;53.624;9.786;2022-09-17T04:33:24;15.37;;;1.47;;
5391;SDS011;2719;53.624;9.786;2022-09-17T04:35:51;15.53;;;2.20;;
5391;SDS011;2719;53.624;9.786;2022-09-17T04:38:18;11.83;;;1.73;;
5391;SDS011;2719;53.624;9.786;2022-09-17T04:40:46;5.00;;;0.80;;
5391;SDS011;2719;53.624;9.786;2022-09-17T04:43:13;14.90;;;1.37;;
5391;SDS011;2719;53.624;9.786;2022-09-17T04:45:43;20.00;;;1.77;;
5391;SDS011;2719;53.624;9.786;2022-09-17T04:48:10;6.27;;;0.90;;
5391;SDS011;2719;53.624;9.786;2022-09-17T04:50:37;15.03;;;1.37;;
5391;SDS011;2719;53.624;9.786;2022-09-17T04:53:04;13.43;;;0.80;;
5391;SDS011;2719;53.624;9.786;2022-09-17T04:55:31;15.63;;;1.13;;
5391;SDS011;2719;53.624;9.786;2022-09-17T04:57:57;8.47;;;1.13;;
5391;SDS011;2719;53.624;9.786;2022-09-17T05:00:24;8.70;;;1.00;;
5391;SDS011;2719;53.624;9.786;2022-09-17T05:02:53;11.67;;;0.90;;
5391;SDS011;2719;53.624;9.786;2022-09-17T05:05:20;14.20;;;1.43;;
5391;SDS011;2719;53.624;9.786;2022-09-17T05:07:48;5.83;;;1.77;;
5391;SDS011;2719;53.624;9.786;2022-09-17T05:10:15;11.30;;;2.23;;
5391;SDS011;2719;53.624;9.786;2022-09-17T05:12:46;14.50;;;2.73;;
5391;SDS011;2719;53.624;9.786;2022-09-17T05:15:13;15.27;;;1.20;;
5391;SDS011;2719;53.624;9.786;2022-09-17T05:17:40;8.20;;;1.23;;
5391;SDS011;2719;53.624;9.786;2022-09-17T05:20:08;11.70;;;1.73;;
5391;SDS011;2719;53.624;9.786;2022-09-17T05:22:39;14.33;;;1.27;;
5391;SDS011;2719;53.624;9.786;2022-09-17T05:25:07;6.03;;;1.10;;
5391;SDS011;2719;53.624;9.786;2022-09-17T05:27:33;12.10;;;0.80;;
5391;SDS011;2719;53.624;9.786;2022-09-17T05:30:00;10.20;;;1.20;;
5391;SDS011;2719;53.624;9.786;2022-09-17T05:32:27;16.40;;;1.23;;
5391;SDS011;2719;53.624;9.786;2022-09-17T05:34:53;6.93;;;1.10;;
5391;SDS011;2719;53.624;9.786;2022-09-17T05:37:21;21.00;;;1.50;;
5391;SDS011;2719;53.624;9.786;2022-09-17T05:39:48;16.27;;;1.93;;
5391;SDS011;2719;53.624;9.786;2022-09-17T05:42:15;8.93;;;1.53;;
5391;SDS011;2719;53.624;9.786;2022-09-17T05:44:41;9.90;;;0.80;;
5391;SDS011;2719;53.624;9.786;2022-09-17T05:47:08;7.63;;;0.80;;
5391;SDS011;2719;53.624;9.786;2022-09-17T05:49:34;11.80;;;1.20;;
5391;SDS011;2719;53.624;9.786;2022-09-17T05:52:01;5.00;;;0.80;;
5391;SDS011;2719;53.624;9.786;2022-09-17T05:54:29;5.13;;;1.47;;
5391;SDS011;2719;53.624;9.786;2022-09-17T05:56:56;12.27;;;1.17;;
5391;SDS011;2719;53.624;9.786;2022-09-17T05:59:22;13.27;;;1.10;;
5391;SDS011;2719;53.624;9.786;2022-09-17T06:01:49;11.53;;;1.33;;
5391;SDS011;2719;53.624;9.786;2022-09-17T06:04:16;10.13;;;1.90;;
5391;SDS011;2719;53.624;9.786;2022-09-17T06:06:42;8.33;;;0.90;;
5391;SDS011;2719;53.624;9.786;2022-09-17T06:09:09;17.10;;;1.87;;
5391;SDS011;2719;53.624;9.786;2022-09-17T06:11:37;9.17;;;1.00;;
5391;SDS011;2719;53.624;9.786;2022-09-17T06:14:04;9.33;;;0.93;;
5391;SDS011;2719;53.624;9.786;2022-09-17T06:16:31;15.53;;;1.97;;
5391;SDS011;2719;53.624;9.786;2022-09-17T06:18:57;8.50;;;1.17;;
5391;SDS011;2719;53.624;9.786;2022-09-17T06:21:24;17.40;;;1.00;;
5391;SDS011;2719;53.624;9.786;2022-09-17T06:23:50;8.63;;;0.73;;
5391;SDS011;2719;53.624;9.786;2022-09-17T06:26:18;6.70;;;1.30;;
5391;SDS011;2719;53.624;9.786;2022-09-17T06:28:46;5.13;;;1.23;;
5391;SDS011;2719;53.624;9.786;2022-09-17T06:31:12;20.87;;;1.53;;
5391;SDS011;2719;53.624;9.786;2022-09-17T06:33:39;6.73;;;0.60;;
5391;SDS011;2719;53.624;9.786;2022-09-17T06:36:06;6.33;;;0.80;;
5391;SDS011;2719;53.624;9.786;2022-09-17T06:38:35;10.83;;;1.30;;
5391;SDS011;2719;53.624;9.786;2022-09-17T06:41:03;5.37;;;0.67;;
5391;SDS011;2719;53.624;9.786;2022-09-17T06:43:30;22.03;;;1.83;;
5391;SDS011;2719;53.624;9.786;2022-09-17T06:45:58;5.93;;;1.13;;
5391;SDS011;2719;53.624;9.786;2022-09-17T06:48:26;9.23;;;0.80;;
5391;SDS011;2719;53.624;9.786;2022-09-17T06:50:54;8.47;;;0.80;;
5391;SDS011;2719;53.624;9.786;2022-09-17T06:53:21;4.90;;;0.60;;
5391;SDS011;2719;53.624;9.786;2022-09-17T06:55:49;4.70;;;0.50;;
5391;SDS011;2719;53.624;9.786;2022-09-17T06:58:16;5.53;;;0.70;;
5391;SDS011;2719;53.624;9.786;2022-09-17T07:00:42;1.73;;;0.50;;
5391;SDS011;2719;53.624;9.786;2022-09-17T07:03:10;14.03;;;1.27;;
5391;SDS011;2719;53.624;9.786;2022-09-17T07:05:37;6.33;;;0.50;;
5391;SDS011;2719;53.624;9.786;2022-09-17T07:08:04;3.63;;;0.60;;
5391;SDS011;2719;53.624;9.786;2022-09-17T07:10:31;3.10;;;0.50;;
5391;SDS011;2719;53.624;9.786;2022-09-17T07:12:58;6.43;;;0.50;;
5391;SDS011;2719;53.624;9.786;2022-09-17T07:15:24;5.37;;;0.70;;
5391;SDS011;2719;53.624;9.786;2022-09-17T07:17:51;7.83;;;0.70;;
5391;SDS011;2719;53.624;9.786;2022-09-17T07:20:19;11.87;;;0.57;;
5391;SDS011;2719;53.624;9.786;2022-09-17T07:22:53;13.70;;;1.20;;
5391;SDS011;2719;53.624;9.786;2022-09-17T07:25:21;6.10;;;0.90;;
5391;SDS011;2719;53.624;9.786;2022-09-17T07:27:48;8.67;;;0.70;;
5391;SDS011;2719;53.624;9.786;2022-09-17T07:30:14;5.70;;;0.50;;
5391;SDS011;2719;53.624;9.786;2022-09-17T07:32:41;3.70;;;0.57;;
5391;SDS011;2719;53.624;9.786;2022-09-17T07:35:08;5.27;;;0.97;;
5391;SDS011;2719;53.624;9.786;2022-09-17T07:37:36;3.03;;;0.60;;
5391;SDS011;2719;53.624;9.786;2022-09-17T07:40:03;2.43;;;0.53;;
5391;SDS011;2719;53.624;9.786;2022-09-17T07:42:31;4.57;;;1.30;;
5391;SDS011;2719;53.624;9.786;2022-09-17T07:44:58;7.73;;;0.60;;
5391;SDS011;2719;53.624;9.786;2022-09-17T07:47:24;11.10;;;1.07;;
5391;SDS011;2719;53.624;9.786;2022-09-17T07:49:51;12.60;;;1.03;;
5391;SDS011;2719;53.624;9.786;2022-09-17T07:52:18;4.50;;;0.80;;
5391;SDS011;2719;53.624;9.786;2022-09-17T07:54:46;8.07;;;1.10;;
5391;SDS011;2719;53.624;9.786;2022-09-17T07:57:12;10.73;;;1.10;;
5391;SDS011;2719;53.624;9.786;2022-09-17T07:59:39;10.43;;;0.90;;
5391;SDS011;2719;53.624;9.786;2022-09-17T08:02:07;6.13;;;0.77;;
5391;SDS011;2719;53.624;9.786;2022-09-17T08:04:36;8.67;;;0.70;;
5391;SDS011;2719;53.624;9.786;2022-09-17T08:07:03;5.30;;;0.60;;
5391;SDS011;2719;53.624;9.786;2022-09-17T08:09:30;13.30;;;1.77;;
5391;SDS011;2719;53.624;9.786;2022-09-17T08:11:58;6.23;;;0.80;;
5391;SDS011;2719;53.624;9.786;2022-09-17T08:14:24;7.67;;;0.67;;
5391;SDS011;2719;53.624;9.786;2022-09-17T08:16:51;8.47;;;0.63;;
5391;SDS011;2719;53.624;9.786;2022-09-17T08:19:18;10.00;;;2.07;;
5391;SDS011;2719;53.624;9.786;2022-09-17T08:21:45;6.13;;;1.10;;
5391;SDS011;2719;53.624;9.786;2022-09-17T08:24:12;12.60;;;0.97;;
5391;SDS011;2719;53.624;9.786;2022-09-17T08:26:38;6.63;;;0.90;;
5391;SDS011;2719;53.624;9.786;2022-09-17T08:29:07;3.77;;;0.70;;
5391;SDS011;2719;53.624;9.786;2022-09-17T08:31:35;17.07;;;1.20;;
5391;SDS011;2719;53.624;9.786;2022-09-17T08:34:05;5.70;;;0.63;;
5391;SDS011;2719;53.624;9.786;2022-09-17T08:36:33;7.23;;;0.87;;
5391;SDS011;2719;53.624;9.786;2022-09-17T08:39:00;1.20;;;0.50;;
5391;SDS011;2719;53.624;9.786;2022-09-17T08:41:31;6.10;;;0.50;;
5391;SDS011;2719;53.624;9.786;2022-09-17T08:44:17;10.00;;;0.60;;
5391;SDS011;2719;53.624;9.786;2022-09-17T08:46:49;4.40;;;0.50;;
5391;SDS011;2719;53.624;9.786;2022-09-17T08:49:22;6.40;;;0.40;;
5391;SDS011;2719;53.624;9.786;2022-09-17T08:51:59;10.80;;;0.53;;
5391;SDS011;2719;53.624;9.786;2022-09-17T08:54:40;20.03;;;2.10;;
5391;SDS011;2719;53.624;9.786;2022-09-17T08:57:14;4.03;;;0.50;;
5391;SDS011;2719;53.624;9.786;2022-09-17T08:59:49;2.13;;;0.40;;
5391;SDS011;2719;53.624;9.786;2022-09-17T09:02:24;1.87;;;0.40;;
5391;SDS011;2719;53.624;9.786;2022-09-17T09:05:08;5.30;;;0.50;;
5391;SDS011;2719;53.624;9.786;2022-09-17T09:07:40;8.30;;;0.53;;
5391;SDS011;2719;53.624;9.786;2022-09-17T09:10:12;2.53;;;0.50;;
5391;SDS011;2719;53.624;9.786;2022-09-17T09:12:43;5.20;;;0.60;;
5391;SDS011;2719;53.624;9.786;2022-09-17T09:15:17;6.73;;;0.60;;
5391;SDS011;2719;53.624;9.786;2022-09-17T09:18:02;2.97;;;0.40;;
5391;SDS011;2719;53.624;9.786;2022-09-17T09:20:38;1.40;;;0.50;;
5391;SDS011;2719;53.624;9.786;2022-09-17T09:23:14;3.17;;;0.70;;
5391;SDS011;2719;53.624;9.786;2022-09-17T09:25:50;1.83;;;0.50;;
5391;SDS011;2719;53.624;9.786;2022-09-17T09:28:25;3.50;;;0.40;;
5391;SDS011;2719;53.624;9.786;2022-09-17T09:31:05;3.70;;;0.40;;
5391;SDS011;2719;53.624;9.786;2022-09-17T09:33:50;1.10;;;0.40;;
5391;SDS011;2719;53.624;9.786;2022-09-17T09:36:18;1.20;;;0.40;;
5391;SDS011;2719;53.624;9.786;2022-09-17T09:38:47;4.40;;;0.30;;
5391;SDS011;2719;53.624;9.786;2022-09-17T09:41:21;5.10;;;0.60;;
5391;SDS011;2719;53.624;9.786;2022-09-17T09:43:57;0.87;;;0.30;;
5391;SDS011;2719;53.624;9.786;2022-09-17T09:46:33;2.70;;;0.40;;
5391;SDS011;2719;53.624;9.786;2022-09-17T09:49:12;1.10;;;0.50;;
5391;SDS011;2719;53.624;9.786;2022-09-17T09:51:49;1.73;;;0.30;;
5391;SDS011;2719;53.624;9.786;2022-09-17T09:54:31;2.20;;;0.33;;
5391;SDS011;2719;53.624;9.786;2022-09-17T09:57:09;3.63;;;0.40;;
5391;SDS011;2719;53.624;9.786;2022-09-17T09:59:38;2.50;;;0.50;;
5391;SDS011;2719;53.624;9.786;2022-09-17T10:02:07;2.13;;;0.40;;
5391;SDS011;2719;53.624;9.786;2022-09-17T10:04:34;2.37;;;0.50;;
5391;SDS011;2719;53.624;9.786;2022-09-17T10:07:02;6.23;;;0.67;;
5391;SDS011;2719;53.624;9.786;2022-09-17T10:09:31;3.97;;;0.47;;
5391;SDS011;2719;53.624;9.786;2022-09-17T10:12:09;6.53;;;0.73;;
5391;SDS011;2719;53.624;9.786;2022-09-17T10:14:42;2.10;;;0.43;;
5391;SDS011;2719;53.624;9.786;2022-09-17T10:17:13;5.80;;;0.70;;
5391;SDS011;2719;53.624;9.786;2022-09-17T10:19:42;7.67;;;0.60;;
5391;SDS011;2719;53.624;9.786;2022-09-17T10:22:21;1.20;;;0.50;;
5391;SDS011;2719;53.624;9.786;2022-09-17T10:24:51;2.13;;;0.50;;
5391;SDS011;2719;53.624;9.786;2022-09-17T10:27:21;5.23;;;0.50;;
5391;SDS011;2719;53.624;9.786;2022-09-17T10:29:50;3.47;;;0.50;;
5391;SDS011;2719;53.624;9.786;2022-09-17T10:32:23;2.50;;;0.80;;
5391;SDS011;2719;53.624;9.786;2022-09-17T10:34:56;1.80;;;0.40;;
5391;SDS011;2719;53.624;9.786;2022-09-17T10:37:31;3.17;;;0.50;;
5391;SDS011;2719;53.624;9.786;2022-09-17T10:40:01;5.83;;;0.60;;
5391;SDS011;2719;53.624;9.786;2022-09-17T10:42:48;5.93;;;0.60;;
5391;SDS011;2719;53.624;9.786;2022-09-17T10:45:22;5.00;;;0.50;;
5391;SDS011;2719;53.624;9.786;2022-09-17T10:47:51;7.83;;;0.60;;
5391;SDS011;2719;53.624;9.786;2022-09-17T10:50:19;7.37;;;0.43;;
5391;SDS011;2719;53.624;9.786;2022-09-17T10:52:50;10.00;;;0.50;;
5391;SDS011;2719;53.624;9.786;2022-09-17T10:55:21;6.70;;;0.87;;
5391;SDS011;2719;53.624;9.786;2022-09-17T10:57:57;2.50;;;0.50;;
5391;SDS011;2719;53.624;9.786;2022-09-17T11:00:29;4.90;;;1.17;;
5391;SDS011;2719;53.624;9.786;2022-09-17T11:03:20;8.30;;;1.47;;
5391;SDS011;2719;53.624;9.786;2022-09-17T11:06:09;4.63;;;1.30;;
5391;SDS011;2719;53.624;9.786;2022-09-17T11:09:00;2.70;;;0.40;;
5391;SDS011;2719;53.624;9.786;2022-09-17T11:11:38;2.97;;;0.57;;
5391;SDS011;2719;53.624;9.786;2022-09-17T11:14:18;2.10;;;0.57;;
5391;SDS011;2719;53.624;9.786;2022-09-17T11:17:02;9.73;;;0.60;;
5391;SDS011;2719;53.624;9.786;2022-09-17T11:19:41;4.57;;;0.50;;
5391;SDS011;2719;53.624;9.786;2022-09-17T11:22:15;7.90;;;0.80;;
5391;SDS011;2719;53.624;9.786;2022-09-17T11:24:50;3.00;;;0.60;;
5391;SDS011;2719;53.624;9.786;2022-09-17T11:27:34;6.67;;;1.17;;
5391;SDS011;2719;53.624;9.786;2022-09-17T11:30:15;8.47;;;1.00;;
5391;SDS011;2719;53.624;9.786;2022-09-17T11:32:53;1.33;;;0.50;;
5391;SDS011;2719;53.624;9.786;2022-09-17T11:35:46;3.13;;;0.67;;
5391;SDS011;2719;53.624;9.786;2022-09-17T11:38:15;6.60;;;1.27;;
5391;SDS011;2719;53.624;9.786;2022-09-17T11:40:47;3.43;;;0.63;;
5391;SDS011;2719;53.624;9.786;2022-09-17T11:43:23;5.70;;;0.50;;
5391;SDS011;2719;53.624;9.786;2022-09-17T11:45:55;4.57;;;0.60;;
5391;SDS011;2719;53.624;9.786;2022-09-17T11:48:26;11.40;;;1.43;;
5391;SDS011;2719;53.624;9.786;2022-09-17T11:51:01;14.83;;;0.60;;
5391;SDS011;2719;53.624;9.786;2022-09-17T11:53:34;5.90;;;0.80;;
5391;SDS011;2719;53.624;9.786;2022-09-17T11:56:08;5.07;;;0.80;;
5391;SDS011;2719;53.624;9.786;2022-09-17T11:58:42;9.87;;;0.70;;
5391;SDS011;2719;53.624;9.786;2022-09-17T12:01:14;10.63;;;1.57;;
5391;SDS011;2719;53.624;9.786;2022-09-17T12:03:47;7.33;;;0.83;;
5391;SDS011;2719;53.624;9.786;2022-09-17T12:06:20;11.73;;;1.03;;
5391;SDS011;2719;53.624;9.786;2022-09-17T12:08:56;12.23;;;1.33;;
5391;SDS011;2719;53.624;9.786;2022-09-17T12:11:27;8.67;;;0.83;;
5391;SDS011;2719;53.624;9.786;2022-09-17T12:14:00;7.00;;;0.63;;
5391;SDS011;2719;53.624;9.786;2022-09-17T12:16:32;6.87;;;0.97;;
5391;SDS011;2719;53.624;9.786;2022-09-17T12:19:03;5.67;;;1.13;;
5391;SDS011;2719;53.624;9.786;2022-09-17T12:21:38;22.77;;;2.50;;
5391;SDS011;2719;53.624;9.786;2022-09-17T12:24:10;20.87;;;1.27;;
5391;SDS011;2719;53.624;9.786;2022-09-17T12:26:47;9.67;;;3.13;;
5391;SDS011;2719;53.624;9.786;2022-09-17T12:29:28;8.07;;;1.20;;
5391;SDS011;2719;53.624;9.786;2022-09-17T12:32:02;6.73;;;0.53;;
5391;SDS011;2719;53.624;9.786;2022-09-17T12:34:40;6.90;;;0.90;;
5391;SDS011;2719;53.624;9.786;2022-09-17T12:37:19;9.43;;;0.90;;
5391;SDS011;2719;53.624;9.786;2022-09-17T12:40:01;5.23;;;0.87;;
5391;SDS011;2719;53.624;9.786;2022-09-17T12:42:39;6.27;;;1.00;;
5391;SDS011;2719;53.624;9.786;2022-09-17T12:45:26;7.43;;;1.40;;
5391;SDS011;2719;53.624;9.786;2022-09-17T12:51:29;5.23;;;1.23;;
5391;SDS011;2719;53.624;9.786;2022-09-17T12:57:20;5.47;;;1.03;;
5391;SDS011;2719;53.624;9.786;2022-09-17T12:59:58;5.20;;;1.00;;
5391;SDS011;2719;53.624;9.786;2022-09-17T13:02:30;6.53;;;0.77;;
5391;SDS011;2719;53.624;9.786;2022-09-17T13:05:18;3.90;;;0.40;;
5391;SDS011;2719;53.624;9.786;2022-09-17T13:08:11;2.40;;;0.40;;
5391;SDS011;2719;53.624;9.786;2022-09-17T13:11:08;3.23;;;0.50;;
5391;SDS011;2719;53.624;9.786;2022-09-17T13:14:03;2.07;;;0.40;;
5391;SDS011;2719;53.624;9.786;2022-09-17T13:16:39;4.03;;;0.53;;
5391;SDS011;2719;53.624;9.786;2022-09-17T13:19:12;3.57;;;0.50;;
5391;SDS011;2719;53.624;9.786;2022-09-17T13:21:48;6.07;;;0.80;;
5391;SDS011;2719;53.624;9.786;2022-09-17T13:24:19;5.87;;;0.80;;
5391;SDS011;2719;53.624;9.786;2022-09-17T13:26:50;19.23;;;0.90;;
5391;SDS011;2719;53.624;9.786;2022-09-17T13:32:45;5.50;;;0.50;;
5391;SDS011;2719;53.624;9.786;2022-09-17T13:38:19;1.50;;;0.40;;
5391;SDS011;2719;53.624;9.786;2022-09-17T13:40:48;3.50;;;0.40;;
5391;SDS011;2719;53.624;9.786;2022-09-17T13:43:18;3.30;;;0.80;;
5391;SDS011;2719;53.624;9.786;2022-09-17T13:46:08;5.80;;;0.40;;
5391;SDS011;2719;53.624;9.786;2022-09-17T13:48:43;0.90;;;0.30;;
5391;SDS011;2719;53.624;9.786;2022-09-17T13:54:10;1.93;;;0.30;;
5391;SDS011;2719;53.624;9.786;2022-09-17T13:56:40;2.23;;;0.40;;
5391;SDS011;2719;53.624;9.786;2022-09-17T13:59:11;0.93;;;0.30;;
5391;SDS011;2719;53.624;9.786;2022-09-17T14:10:55;4.20;;;0.60;;
5391;SDS011;2719;53.624;9.786;2022-09-17T14:13:37;1.07;;;0.30;;
5391;SDS011;2719;53.624;9.786;2022-09-17T14:18:59;1.90;;;0.40;;
5391;SDS011;2719;53.624;9.786;2022-09-17T14:21:29;10.03;;;0.50;;
5391;SDS011;2719;53.624;9.786;2022-09-17T14:23:57;1.10;;;0.40;;
5391;SDS011;2719;53.624;9.786;2022-09-17T14:29:33;1.50;;;0.40;;
5391;SDS011;2719;53.624;9.786;2022-09-17T14:32:21;1.20;;;0.40;;
5391;SDS011;2719;53.624;9.786;2022-09-17T14:34:56;3.93;;;0.53;;
5391;SDS011;2719;53.624;9.786;2022-09-17T14:37:23;6.50;;;0.50;;
5391;SDS011;2719;53.624;9.786;2022-09-17T14:39:50;3.33;;;0.40;;
5391;SDS011;2719;53.624;9.786;2022-09-17T14:42:18;2.17;;;0.30;;
5391;SDS011;2719;53.624;9.786;2022-09-17T14:44:50;5.23;;;0.40;;
5391;SDS011;2719;53.624;9.786;2022-09-17T14:47:24;3.73;;;0.50;;
5391;SDS011;2719;53.624;9.786;2022-09-17T14:49:51;4.00;;;0.80;;
5391;SDS011;2719;53.624;9.786;2022-09-17T14:52:24;3.97;;;1.20;;
5391;SDS011;2719;53.624;9.786;2022-09-17T14:55:08;1.80;;;0.60;;
5391;SDS011;2719;53.624;9.786;2022-09-17T14:57:36;9.23;;;0.80;;
5391;SDS011;2719;53.624;9.786;2022-09-17T15:00:03;5.97;;;1.03;;
5391;SDS011;2719;53.624;9.786;2022-09-17T15:02:34;5.70;;;0.60;;
5391;SDS011;2719;53.624;9.786;2022-09-17T15:05:14;4.10;;;0.50;;
5391;SDS011;2719;53.624;9.786;2022-09-17T15:07:43;5.77;;;0.60;;
5391;SDS011;2719;53.624;9.786;2022-09-17T15:10:12;9.33;;;0.70;;
5391;SDS011;2719;53.624;9.786;2022-09-17T15:12:41;4.77;;;0.70;;
5391;SDS011;2719;53.624;9.786;2022-09-17T15:15:19;4.03;;;0.60;;
5391;SDS011;2719;53.624;9.786;2022-09-17T15:17:49;4.97;;;0.90;;
5391;SDS011;2719;53.624;9.786;2022-09-17T15:20:17;5.00;;;0.70;;
5391;SDS011;2719;53.624;9.786;2022-09-17T15:22:47;11.37;;;0.93;;
5391;SDS011;2719;53.624;9.786;2022-09-17T15:25:21;6.57;;;0.77;;
5391;SDS011;2719;53.624;9.786;2022-09-17T15:27:51;5.60;;;0.67;;
5391;SDS011;2719;53.624;9.786;2022-09-17T15:30:21;2.70;;;0.50;;
5391;SDS011;2719;53.624;9.786;2022-09-17T15:32:50;4.23;;;0.43;;
5391;SDS011;2719;53.624;9.786;2022-09-17T15:35:19;5.03;;;0.67;;
5391;SDS011;2719;53.624;9.786;2022-09-17T15:37:49;3.67;;;0.97;;
5391;SDS011;2719;53.624;9.786;2022-09-17T15:40:23;2.20;;;0.50;;
5391;SDS011;2719;53.624;9.786;2022-09-17T15:42:54;1.87;;;0.40;;
5391;SDS011;2719;53.624;9.786;2022-09-17T15:45:31;2.30;;;0.50;;
5391;SDS011;2719;53.624;9.786;2022-09-17T15:48:02;1.87;;;0.30;;
5391;SDS011;2719;53.624;9.786;2022-09-17T15:50:30;12.53;;;0.50;;
5391;SDS011;2719;53.624;9.786;2022-09-17T15:53:11;1.67;;;0.40;;
5391;SDS011;2719;53.624;9.786;2022-09-17T15:55:39;2.10;;;0.50;;
5391;SDS011;2719;53.624;9.786;2022-09-17T15:58:24;5.13;;;0.77;;
5391;SDS011;2719;53.624;9.786;2022-09-17T16:01:05;3.17;;;0.50;;
5391;SDS011;2719;53.624;9.786;2022-09-17T16:06:56;1.33;;;0.40;;
5391;SDS011;2719;53.624;9.786;2022-09-17T16:09:42;4.10;;;0.60;;
5391;SDS011;2719;53.624;9.786;2022-09-17T16:12:14;4.13;;;0.60;;
5391;SDS011;2719;53.624;9.786;2022-09-17T16:14:43;3.70;;;0.70;;